Time;durP1;ratioP1;P1;durP2;ratioP2;P2;SDS_P1;SDS_P2;PMS_P1;PMS_P2;Temp;Humidity;BMP_temperature;BMP_pressure;BME280_temperature;BME280_humidity;BME280_pressure;Samples;Min_cycle;Max_cycle;Signal;HPM_P1;HPM_P2
2021/07/08 00:01:57;;;;;;;7.57;4.38;;;;;;;;;;5047407;28;20024;-79
2021/07/08 00:04:22;;;;;;;7.88;4.15;;;;;;;;;;5043125;28;20034;-79
2021/07/08 00:06:48;;;;;;;6.82;4.38;;;;;;;;;;5046257;28;20036;-79
2021/07/08 00:09:13;;;;;;;7.43;4.50;;;;;;;;;;5047479;28;20060;-80
2021/07/08 00:11:39;;;;;;;6.55;5.00;;;;;;;;;;5045227;28;20033;-79
2021/07/08 00:14:06;;;;;;;8.38;5.85;;;;;;;;;;5044394;28;20392;-79
2021/07/08 00:16:32;;;;;;;7.00;5.75;;;;;;;;;;5048011;28;20039;-80
2021/07/08 00:18:58;;;;;;;8.57;4.90;;;;;;;;;;5036778;28;20119;-79
2021/07/08 00:21:25;;;;;;;6.05;4.82;;;;;;;;;;5045372;28;20028;-79
2021/07/08 00:23:51;;;;;;;6.88;4.75;;;;;;;;;;5043631;28;20074;-78
2021/07/08 00:26:17;;;;;;;9.70;4.90;;;;;;;;;;5038654;28;20467;-80
2021/07/08 00:28:43;;;;;;;7.72;4.32;;;;;;;;;;5047571;28;20106;-80
2021/07/08 00:31:08;;;;;;;8.00;5.35;;;;;;;;;;5041797;28;20130;-79
2021/07/08 00:33:34;;;;;;;6.40;5.13;;;;;;;;;;5063543;28;20522;-79
2021/07/08 00:35:59;;;;;;;10.02;5.65;;;;;;;;;;5048135;28;20315;-79
2021/07/08 00:38:25;;;;;;;7.75;5.47;;;;;;;;;;5047319;28;20028;-79
2021/07/08 00:40:50;;;;;;;7.00;5.40;;;;;;;;;;5045958;28;20329;-79
2021/07/08 00:43:16;;;;;;;6.82;5.50;;;;;;;;;;5047435;28;20409;-79
2021/07/08 00:45:43;;;;;;;7.28;5.47;;;;;;;;;;5046490;28;20484;-79
2021/07/08 00:48:09;;;;;;;7.78;5.22;;;;;;;;;;5047774;28;20028;-79
2021/07/08 00:50:42;;;;;;;6.22;4.80;;;;;;;;;;5048184;28;20066;-78
2021/07/08 00:53:09;;;;;;;6.20;5.40;;;;;;;;;;5041134;28;20128;-79
2021/07/08 00:55:34;;;;;;;8.13;5.20;;;;;;;;;;5046459;28;20112;-79
2021/07/08 00:58:00;;;;;;;8.90;5.22;;;;;;;;;;5047484;28;20108;-80
2021/07/08 01:00:32;;;;;;;9.02;4.90;;;;;;;;;;5046850;28;20061;-80
2021/07/08 01:02:58;;;;;;;7.07;4.55;;;;;;;;;;5043981;28;20496;-79
2021/07/08 01:05:27;;;;;;;5.63;4.30;;;;;;;;;;5048226;28;20025;-79
2021/07/08 01:07:54;;;;;;;5.63;3.90;;;;;;;;;;5048507;28;20037;-79
2021/07/08 01:10:20;;;;;;;7.57;4.30;;;;;;;;;;5047293;28;20033;-79
2021/07/08 01:12:45;;;;;;;5.13;4.10;;;;;;;;;;5046076;28;20473;-79
2021/07/08 01:15:12;;;;;;;5.97;4.15;;;;;;;;;;5048187;28;20039;-80
2021/07/08 01:17:42;;;;;;;7.45;4.07;;;;;;;;;;5042927;28;20021;-79
2021/07/08 01:20:08;;;;;;;3.85;3.45;;;;;;;;;;5042899;28;20028;-79
2021/07/08 01:22:35;;;;;;;5.28;4.78;;;;;;;;;;5042278;28;20043;-80
2021/07/08 01:25:00;;;;;;;4.85;3.47;;;;;;;;;;5051786;28;20305;-79
2021/07/08 01:27:26;;;;;;;5.13;4.00;;;;;;;;;;5041595;28;20036;-79
2021/07/08 01:29:53;;;;;;;7.07;3.83;;;;;;;;;;5046090;28;20029;-79
2021/07/08 01:32:19;;;;;;;6.78;3.67;;;;;;;;;;5049167;28;20033;-79
2021/07/08 01:34:44;;;;;;;6.20;3.78;;;;;;;;;;5037391;28;20029;-79
2021/07/08 01:37:10;;;;;;;10.30;3.80;;;;;;;;;;5040868;28;20040;-79
2021/07/08 01:39:35;;;;;;;6.85;3.63;;;;;;;;;;5046417;28;20369;-79
2021/07/08 01:42:01;;;;;;;4.22;3.83;;;;;;;;;;5045871;28;20031;-79
2021/07/08 01:44:26;;;;;;;4.47;4.07;;;;;;;;;;5037111;28;20068;-79
2021/07/08 01:46:51;;;;;;;5.20;3.42;;;;;;;;;;5045159;28;20029;-79
2021/07/08 01:49:17;;;;;;;5.68;3.75;;;;;;;;;;5042570;28;20040;-80
2021/07/08 01:51:44;;;;;;;4.05;3.65;;;;;;;;;;5042109;28;20035;-80
2021/07/08 01:54:10;;;;;;;6.38;4.15;;;;;;;;;;5046061;28;20104;-78
2021/07/08 01:56:37;;;;;;;6.38;4.18;;;;;;;;;;5042666;28;20033;-80
2021/07/08 01:59:03;;;;;;;8.75;4.32;;;;;;;;;;5043576;28;20443;-79
2021/07/08 02:01:28;;;;;;;5.57;4.47;;;;;;;;;;5040530;28;20477;-79
2021/07/08 02:03:54;;;;;;;7.75;4.38;;;;;;;;;;5045724;28;20031;-79
2021/07/08 02:09:41;;;;;;;5.80;3.85;;;;;;;;;;5041490;28;20037;-80
2021/07/08 02:12:08;;;;;;;5.00;4.45;;;;;;;;;;5047662;28;20025;-79
2021/07/08 02:14:34;;;;;;;7.50;5.13;;;;;;;;;;5041608;28;20139;-79
2021/07/08 02:17:00;;;;;;;6.07;4.22;;;;;;;;;;5045910;28;20112;-79
2021/07/08 02:19:25;;;;;;;5.97;4.07;;;;;;;;;;5041795;28;20083;-80
2021/07/08 02:21:50;;;;;;;4.95;4.45;;;;;;;;;;5041699;28;20072;-79
2021/07/08 02:24:16;;;;;;;4.57;4.10;;;;;;;;;;5047299;28;20098;-79
2021/07/08 02:26:41;;;;;;;7.25;4.28;;;;;;;;;;5045254;28;20100;-79
2021/07/08 02:29:09;;;;;;;6.00;4.60;;;;;;;;;;5043390;28;20044;-79
2021/07/08 02:31:34;;;;;;;7.88;4.35;;;;;;;;;;5047222;28;20025;-79
2021/07/08 02:33:59;;;;;;;6.35;4.28;;;;;;;;;;5044854;28;20082;-80
2021/07/08 02:36:25;;;;;;;14.68;9.13;;;;;;;;;;5042739;28;20068;-79
2021/07/08 02:38:50;;;;;;;12.85;9.02;;;;;;;;;;5045621;28;20067;-79
2021/07/08 02:41:16;;;;;;;8.32;5.45;;;;;;;;;;5043368;28;20043;-79
2021/07/08 02:43:41;;;;;;;8.32;4.50;;;;;;;;;;5047116;28;20032;-79
2021/07/08 02:46:07;;;;;;;5.35;4.45;;;;;;;;;;5043795;28;20025;-79
2021/07/08 02:48:32;;;;;;;7.90;4.25;;;;;;;;;;5044152;28;20029;-79
2021/07/08 02:50:58;;;;;;;8.77;6.10;;;;;;;;;;5046634;28;20572;-79
2021/07/08 02:53:24;;;;;;;9.05;5.88;;;;;;;;;;5040691;28;20524;-79
2021/07/08 02:55:49;;;;;;;10.65;6.47;;;;;;;;;;5042812;28;20037;-79
2021/07/08 02:58:15;;;;;;;8.38;5.90;;;;;;;;;;5038746;28;20345;-79
2021/07/08 03:00:41;;;;;;;10.68;7.95;;;;;;;;;;5039823;28;20025;-79
2021/07/08 03:03:07;;;;;;;7.70;5.28;;;;;;;;;;5043994;28;20017;-80
2021/07/08 03:05:32;;;;;;;8.60;5.72;;;;;;;;;;5041141;28;20025;-79
2021/07/08 03:07:58;;;;;;;6.68;5.10;;;;;;;;;;5044733;28;20178;-79
2021/07/08 03:10:26;;;;;;;9.00;5.25;;;;;;;;;;5044263;28;20051;-79
2021/07/08 03:12:52;;;;;;;5.50;4.70;;;;;;;;;;5046937;28;20025;-80
2021/07/08 03:15:18;;;;;;;5.80;4.32;;;;;;;;;;5045922;28;20480;-79
2021/07/08 03:17:44;;;;;;;6.65;4.65;;;;;;;;;;5043699;28;20108;-79
2021/07/08 03:20:13;;;;;;;7.43;4.10;;;;;;;;;;5043132;28;20099;-80
2021/07/08 03:22:40;;;;;;;7.10;5.38;;;;;;;;;;5043319;28;20053;-79
2021/07/08 03:25:07;;;;;;;9.43;5.45;;;;;;;;;;5042430;28;20111;-79
2021/07/08 03:27:32;;;;;;;6.50;5.10;;;;;;;;;;5042915;28;20251;-79
2021/07/08 03:29:58;;;;;;;7.25;5.53;;;;;;;;;;5041596;28;20170;-79
2021/07/08 03:32:23;;;;;;;6.43;5.00;;;;;;;;;;5043736;28;20021;-80
2021/07/08 03:34:48;;;;;;;5.75;4.90;;;;;;;;;;5045081;28;20035;-79
2021/07/08 03:37:14;;;;;;;6.32;5.20;;;;;;;;;;5045758;28;20039;-79
2021/07/08 03:39:39;;;;;;;9.32;5.82;;;;;;;;;;5042266;28;20037;-79
2021/07/08 03:42:05;;;;;;;6.75;5.60;;;;;;;;;;5045328;28;20043;-79
2021/07/08 03:44:30;;;;;;;11.50;6.78;;;;;;;;;;5050030;28;20598;-80
2021/07/08 03:46:56;;;;;;;12.88;8.10;;;;;;;;;;5047005;28;20400;-79
2021/07/08 03:49:21;;;;;;;13.60;8.90;;;;;;;;;;5046926;28;20036;-79
2021/07/08 03:51:47;;;;;;;12.13;8.60;;;;;;;;;;5046169;28;20029;-79
2021/07/08 03:54:12;;;;;;;13.07;7.95;;;;;;;;;;5046001;28;20090;-80
2021/07/08 03:56:38;;;;;;;12.65;8.63;;;;;;;;;;5050958;28;20036;-80
2021/07/08 03:59:03;;;;;;;11.50;8.90;;;;;;;;;;5049446;28;20048;-79
2021/07/08 04:01:29;;;;;;;10.57;8.05;;;;;;;;;;5048933;28;20489;-80
2021/07/08 04:03:54;;;;;;;9.70;7.28;;;;;;;;;;5045548;28;20044;-79
2021/07/08 04:06:19;;;;;;;9.80;8.00;;;;;;;;;;5044518;28;20138;-79
2021/07/08 04:08:45;;;;;;;12.68;8.55;;;;;;;;;;5043013;28;20483;-79
2021/07/08 04:11:10;;;;;;;9.20;7.30;;;;;;;;;;5046707;28;20037;-79
2021/07/08 04:13:36;;;;;;;8.43;7.18;;;;;;;;;;5050533;28;20062;-79
2021/07/08 04:16:02;;;;;;;8.70;6.20;;;;;;;;;;5044478;28;20116;-79
2021/07/08 04:18:27;;;;;;;11.32;6.20;;;;;;;;;;5047034;28;20025;-80
2021/07/08 04:20:53;;;;;;;6.93;5.45;;;;;;;;;;5043718;28;20043;-79
2021/07/08 04:23:18;;;;;;;6.35;5.45;;;;;;;;;;5043432;28;20029;-79
2021/07/08 04:25:44;;;;;;;7.72;5.32;;;;;;;;;;5047732;28;20037;-79
2021/07/08 04:28:11;;;;;;;6.88;5.40;;;;;;;;;;5042976;28;20049;-79
2021/07/08 04:30:37;;;;;;;7.93;5.53;;;;;;;;;;5050203;28;20400;-79
2021/07/08 04:33:03;;;;;;;8.75;5.95;;;;;;;;;;5049701;28;20036;-79
2021/07/08 04:35:41;;;;;;;11.38;5.40;;;;;;;;;;5048758;28;20034;-79
2021/07/08 04:38:11;;;;;;;6.35;5.50;;;;;;;;;;5043365;28;20372;-79
2021/07/08 04:40:38;;;;;;;6.95;5.80;;;;;;;;;;5049812;28;20090;-79
2021/07/08 04:43:05;;;;;;;11.55;7.32;;;;;;;;;;5049113;28;20033;-79
2021/07/08 04:45:31;;;;;;;13.00;7.43;;;;;;;;;;5046334;28;20545;-79
2021/07/08 04:47:57;;;;;;;9.30;6.43;;;;;;;;;;5040691;28;20112;-79
2021/07/08 04:50:24;;;;;;;10.15;6.28;;;;;;;;;;5046794;28;20044;-80
2021/07/08 04:52:50;;;;;;;7.53;5.38;;;;;;;;;;5039307;28;20025;-79
2021/07/08 04:55:17;;;;;;;8.80;6.30;;;;;;;;;;5048338;28;20025;-79
2021/07/08 04:57:45;;;;;;;9.82;5.90;;;;;;;;;;5045464;28;20041;-80
2021/07/08 05:00:12;;;;;;;6.68;4.82;;;;;;;;;;5049898;28;20021;-80
2021/07/08 05:02:39;;;;;;;6.93;4.90;;;;;;;;;;5045858;28;20029;-79
2021/07/08 05:05:07;;;;;;;8.13;5.00;;;;;;;;;;5038533;28;20469;-79
2021/07/08 05:07:33;;;;;;;5.55;4.70;;;;;;;;;;5046866;28;20033;-80
2021/07/08 05:09:58;;;;;;;7.65;5.20;;;;;;;;;;5048082;28;20025;-78
2021/07/08 05:12:24;;;;;;;7.88;4.93;;;;;;;;;;5044869;28;20029;-77
2021/07/08 05:14:49;;;;;;;8.32;4.93;;;;;;;;;;5044996;28;20060;-78
2021/07/08 05:17:15;;;;;;;9.88;5.78;;;;;;;;;;5044796;28;20481;-77
2021/07/08 05:19:40;;;;;;;7.55;5.78;;;;;;;;;;5043272;28;20105;-78
2021/07/08 05:22:06;;;;;;;8.35;5.22;;;;;;;;;;5043711;28;20021;-78
2021/07/08 05:24:32;;;;;;;5.60;4.90;;;;;;;;;;5042374;28;20029;-78
2021/07/08 05:26:58;;;;;;;7.00;5.10;;;;;;;;;;5042333;28;20037;-77
2021/07/08 05:29:23;;;;;;;6.40;4.97;;;;;;;;;;5042671;28;20041;-77
2021/07/08 05:31:50;;;;;;;6.00;5.00;;;;;;;;;;5042124;28;20025;-78
2021/07/08 05:34:16;;;;;;;8.20;5.55;;;;;;;;;;5043866;28;20111;-77
2021/07/08 05:36:44;;;;;;;9.45;6.07;;;;;;;;;;5044372;28;20115;-78
2021/07/08 05:39:10;;;;;;;8.90;5.95;;;;;;;;;;5039256;28;20037;-77
2021/07/08 05:41:35;;;;;;;9.38;6.43;;;;;;;;;;5040626;28;20029;-77
2021/07/08 05:44:01;;;;;;;9.13;6.22;;;;;;;;;;5043521;28;20287;-78
2021/07/08 05:46:26;;;;;;;9.27;6.20;;;;;;;;;;5038073;28;20493;-78
2021/07/08 05:48:53;;;;;;;10.65;6.70;;;;;;;;;;5048053;28;20029;-78
2021/07/08 05:51:18;;;;;;;7.90;5.95;;;;;;;;;;5040505;28;20070;-78
2021/07/08 05:53:44;;;;;;;8.15;6.05;;;;;;;;;;5039001;28;20436;-76
2021/07/08 05:56:09;;;;;;;5.95;5.18;;;;;;;;;;5040172;28;20029;-77
2021/07/08 05:58:35;;;;;;;10.88;6.10;;;;;;;;;;5041326;28;20060;-77
2021/07/08 06:01:01;;;;;;;8.65;5.32;;;;;;;;;;5041755;28;20029;-77
2021/07/08 06:03:26;;;;;;;6.93;6.10;;;;;;;;;;5043352;28;20386;-77
2021/07/08 06:05:52;;;;;;;8.50;5.63;;;;;;;;;;5038252;28;20028;-77
2021/07/08 06:08:18;;;;;;;8.02;5.97;;;;;;;;;;5047463;28;20028;-77
2021/07/08 06:10:44;;;;;;;9.63;6.55;;;;;;;;;;5045599;28;20492;-78
2021/07/08 06:13:11;;;;;;;8.07;6.65;;;;;;;;;;5045189;28;20060;-77
2021/07/08 06:15:37;;;;;;;8.82;6.07;;;;;;;;;;5040001;28;20039;-77
2021/07/08 06:18:03;;;;;;;7.65;5.90;;;;;;;;;;5039442;28;20062;-77
2021/07/08 06:20:30;;;;;;;8.15;6.10;;;;;;;;;;5045797;28;20029;-77
2021/07/08 06:22:55;;;;;;;6.88;5.90;;;;;;;;;;5044377;28;20041;-77
2021/07/08 06:25:22;;;;;;;9.30;6.05;;;;;;;;;;5042484;28;20028;-80
2021/07/08 06:31:10;;;;;;;7.38;6.13;;;;;;;;;;5042119;28;20033;-78
2021/07/08 06:33:35;;;;;;;7.22;5.88;;;;;;;;;;5046792;28;20583;-78
2021/07/08 06:36:01;;;;;;;7.82;6.53;;;;;;;;;;5045005;28;20037;-78
2021/07/08 06:38:26;;;;;;;6.68;5.97;;;;;;;;;;5036525;28;20052;-78
2021/07/08 06:40:53;;;;;;;8.07;5.97;;;;;;;;;;5040539;28;20025;-78
2021/07/08 06:43:19;;;;;;;8.38;6.25;;;;;;;;;;5044757;28;20029;-78
2021/07/08 06:45:44;;;;;;;8.95;6.90;;;;;;;;;;5042356;28;20028;-78
2021/07/08 06:48:13;;;;;;;9.65;6.78;;;;;;;;;;5037697;28;20056;-77
2021/07/08 06:50:39;;;;;;;8.70;7.28;;;;;;;;;;5043755;28;21523;-79
2021/07/08 06:53:06;;;;;;;8.75;6.70;;;;;;;;;;5040239;28;20116;-79
2021/07/08 06:55:32;;;;;;;7.30;6.35;;;;;;;;;;5044069;28;20083;-79
2021/07/08 06:57:58;;;;;;;8.18;6.22;;;;;;;;;;5041095;28;20033;-79
2021/07/08 07:00:36;;;;;;;8.10;6.07;;;;;;;;;;5056878;28;20078;-78
2021/07/08 07:03:03;;;;;;;8.20;5.55;;;;;;;;;;5042135;28;20527;-78
2021/07/08 07:05:29;;;;;;;8.35;5.88;;;;;;;;;;5038241;28;20075;-79
2021/07/08 07:07:55;;;;;;;12.23;8.15;;;;;;;;;;5046955;28;20029;-79
2021/07/08 07:10:23;;;;;;;10.57;7.75;;;;;;;;;;5040314;28;20049;-79
2021/07/08 07:12:50;;;;;;;19.13;8.07;;;;;;;;;;5042072;28;20029;-78
2021/07/08 07:15:17;;;;;;;11.23;7.85;;;;;;;;;;5038490;28;20164;-78
2021/07/08 07:17:44;;;;;;;9.65;7.60;;;;;;;;;;5039784;28;20021;-78
2021/07/08 07:20:11;;;;;;;10.07;7.70;;;;;;;;;;5034095;28;20048;-78
2021/07/08 07:22:37;;;;;;;9.10;7.10;;;;;;;;;;5041099;28;20036;-78
2021/07/08 07:25:05;;;;;;;8.93;7.15;;;;;;;;;;5045243;28;20120;-78
2021/07/08 07:27:31;;;;;;;8.95;7.15;;;;;;;;;;5046355;28;20395;-78
2021/07/08 07:29:58;;;;;;;10.35;7.60;;;;;;;;;;5043064;28;20033;-78
2021/07/08 07:32:23;;;;;;;9.18;7.50;;;;;;;;;;5045975;28;20025;-77
2021/07/08 07:34:49;;;;;;;11.02;6.97;;;;;;;;;;5037901;28;20396;-77
2021/07/08 07:37:14;;;;;;;8.45;6.38;;;;;;;;;;5042278;28;20452;-78
2021/07/08 07:39:40;;;;;;;9.15;6.07;;;;;;;;;;5035001;28;20020;-78
2021/07/08 07:42:05;;;;;;;7.25;5.32;;;;;;;;;;5036849;28;20432;-78
2021/07/08 07:44:31;;;;;;;8.35;6.00;;;;;;;;;;5044249;28;20434;-78
2021/07/08 07:46:56;;;;;;;8.57;6.07;;;;;;;;;;5044136;28;20109;-79
2021/07/08 07:49:23;;;;;;;9.10;6.60;;;;;;;;;;5043748;28;20029;-79
2021/07/08 07:51:49;;;;;;;9.75;6.60;;;;;;;;;;5059098;28;20121;-79
2021/07/08 07:54:14;;;;;;;11.38;6.40;;;;;;;;;;5042841;28;20106;-80
2021/07/08 07:56:40;;;;;;;9.18;6.47;;;;;;;;;;5043319;28;20040;-78
2021/07/08 07:59:06;;;;;;;8.60;6.45;;;;;;;;;;5042344;28;20024;-77
2021/07/08 08:01:31;;;;;;;10.48;6.60;;;;;;;;;;5041303;28;20029;-78
2021/07/08 08:03:57;;;;;;;9.57;6.00;;;;;;;;;;5043609;28;20037;-77
2021/07/08 08:09:14;;;;;;;8.88;6.28;;;;;;;;;;5040702;28;20416;-77
2021/07/08 08:11:40;;;;;;;8.32;6.07;;;;;;;;;;5045601;28;20025;-77
2021/07/08 08:14:05;;;;;;;11.43;6.45;;;;;;;;;;5046284;28;20036;-77
2021/07/08 08:16:34;;;;;;;10.00;7.10;;;;;;;;;;5041912;28;20036;-78
2021/07/08 08:19:00;;;;;;;9.75;6.65;;;;;;;;;;5043480;28;20064;-77
2021/07/08 08:21:25;;;;;;;7.85;5.53;;;;;;;;;;5039706;28;20453;-77
2021/07/08 08:23:50;;;;;;;7.38;5.07;;;;;;;;;;5044371;28;20396;-78
2021/07/08 08:26:16;;;;;;;7.20;4.70;;;;;;;;;;5045669;28;20029;-77
2021/07/08 08:28:41;;;;;;;5.95;4.55;;;;;;;;;;5040291;28;20029;-78
2021/07/08 08:31:07;;;;;;;6.72;3.80;;;;;;;;;;5044868;28;20401;-77
2021/07/08 08:33:32;;;;;;;5.47;3.92;;;;;;;;;;5045629;28;20500;-77
2021/07/08 08:35:58;;;;;;;4.30;3.45;;;;;;;;;;5044993;28;20473;-77
2021/07/08 08:38:23;;;;;;;3.90;3.50;;;;;;;;;;5045949;28;20022;-78
2021/07/08 08:40:49;;;;;;;5.35;3.50;;;;;;;;;;5045018;28;20445;-77
2021/07/08 08:43:15;;;;;;;4.07;3.30;;;;;;;;;;5042087;28;20033;-77
2021/07/08 08:45:41;;;;;;;4.60;3.35;;;;;;;;;;5040633;28;20033;-77
2021/07/08 08:48:09;;;;;;;4.85;3.97;;;;;;;;;;5043345;28;20029;-77
2021/07/08 08:50:38;;;;;;;4.82;4.00;;;;;;;;;;5045625;28;20027;-78
2021/07/08 08:53:04;;;;;;;4.35;3.90;;;;;;;;;;5039995;28;20029;-78
2021/07/08 08:55:30;;;;;;;5.53;3.58;;;;;;;;;;5047263;28;20451;-79
2021/07/08 08:57:56;;;;;;;3.95;3.55;;;;;;;;;;5047774;28;20025;-77
2021/07/08 09:00:24;;;;;;;5.88;3.78;;;;;;;;;;5048677;28;20378;-77
2021/07/08 09:02:59;;;;;;;6.25;4.63;;;;;;;;;;5041647;28;20112;-78
2021/07/08 09:05:24;;;;;;;7.68;5.63;;;;;;;;;;5042449;28;20411;-78
2021/07/08 09:07:50;;;;;;;7.22;5.18;;;;;;;;;;5050747;28;20028;-78
2021/07/08 09:10:16;;;;;;;6.85;5.13;;;;;;;;;;5046023;28;20488;-78
2021/07/08 09:12:42;;;;;;;6.93;5.38;;;;;;;;;;5045831;28;20444;-78
2021/07/08 09:15:16;;;;;;;7.97;5.30;;;;;;;;;;5047875;28;20032;-78
2021/07/08 09:17:43;;;;;;;8.35;5.35;;;;;;;;;;5041394;28;20044;-78
2021/07/08 09:20:14;;;;;;;7.63;5.30;;;;;;;;;;5041352;28;20026;-78
2021/07/08 09:22:40;;;;;;;12.68;5.82;;;;;;;;;;5048928;28;20060;-78
2021/07/08 09:25:21;;;;;;;7.07;5.32;;;;;;;;;;5046000;28;20129;-78
2021/07/08 09:28:07;;;;;;;7.65;5.78;;;;;;;;;;5046198;28;20260;-78
2021/07/08 09:30:32;;;;;;;7.75;5.20;;;;;;;;;;5045662;28;20036;-79
2021/07/08 09:32:58;;;;;;;9.23;5.97;;;;;;;;;;5043660;28;20020;-78
2021/07/08 09:35:34;;;;;;;7.72;5.97;;;;;;;;;;5044022;28;20040;-78
2021/07/08 09:38:27;;;;;;;8.27;5.63;;;;;;;;;;5043960;28;20032;-78
2021/07/08 09:41:27;;;;;;;13.32;7.53;;;;;;;;;;5045374;28;20413;-78
2021/07/08 09:43:53;;;;;;;12.68;8.80;;;;;;;;;;5044362;28;20079;-78
2021/07/08 09:46:34;;;;;;;12.60;8.40;;;;;;;;;;5044699;28;20033;-78
2021/07/08 09:49:08;;;;;;;10.45;6.93;;;;;;;;;;5046058;28;20056;-78
2021/07/08 09:51:34;;;;;;;10.85;6.20;;;;;;;;;;5044388;28;20032;-78
2021/07/08 09:54:08;;;;;;;8.00;5.85;;;;;;;;;;5036491;28;20402;-79
2021/07/08 09:56:49;;;;;;;9.98;5.95;;;;;;;;;;5045434;28;20508;-79
2021/07/08 09:59:20;;;;;;;10.05;6.25;;;;;;;;;;5044476;28;20207;-78
2021/07/08 10:01:55;;;;;;;9.35;6.47;;;;;;;;;;5043864;28;20031;-78
2021/07/08 10:04:20;;;;;;;9.13;6.43;;;;;;;;;;5045743;28;20210;-78
2021/07/08 10:06:46;;;;;;;8.27;6.10;;;;;;;;;;5043734;28;20029;-77
2021/07/08 10:09:17;;;;;;;7.20;5.88;;;;;;;;;;5042413;28;20025;-78
2021/07/08 10:11:47;;;;;;;10.77;6.75;;;;;;;;;;5044790;28;20037;-78
2021/07/08 10:14:14;;;;;;;8.13;6.68;;;;;;;;;;5045842;28;20017;-78
2021/07/08 10:16:39;;;;;;;8.77;6.53;;;;;;;;;;5041181;28;20113;-78
2021/07/08 10:19:06;;;;;;;10.77;7.38;;;;;;;;;;5041437;28;20080;-78
2021/07/08 10:21:32;;;;;;;7.63;6.35;;;;;;;;;;5043860;28;20493;-77
2021/07/08 10:24:01;;;;;;;10.88;6.90;;;;;;;;;;5042827;28;20223;-77
2021/07/08 10:26:27;;;;;;;11.23;8.25;;;;;;;;;;5045112;28;20480;-77
2021/07/08 10:28:55;;;;;;;9.30;6.60;;;;;;;;;;5047993;28;20092;-78
2021/07/08 10:31:22;;;;;;;8.98;6.72;;;;;;;;;;5042417;28;20064;-78
2021/07/08 10:34:17;;;;;;;10.52;6.78;;;;;;;;;;5042765;28;20033;-77
2021/07/08 10:36:51;;;;;;;9.00;6.28;;;;;;;;;;5059600;28;20452;-77
2021/07/08 10:39:19;;;;;;;9.90;5.22;;;;;;;;;;5044829;28;20488;-78
2021/07/08 10:41:50;;;;;;;5.57;4.57;;;;;;;;;;5057892;28;20389;-78
2021/07/08 10:44:45;;;;;;;9.50;5.53;;;;;;;;;;5040614;28;20272;-78
2021/07/08 10:47:29;;;;;;;10.68;5.53;;;;;;;;;;5040805;28;20033;-79
2021/07/08 10:49:55;;;;;;;7.85;5.93;;;;;;;;;;5047448;28;20403;-78
2021/07/08 10:52:43;;;;;;;7.65;5.60;;;;;;;;;;5038972;28;20103;-78
2021/07/08 10:55:10;;;;;;;10.45;5.60;;;;;;;;;;5042338;28;20060;-78
2021/07/08 10:57:40;;;;;;;6.63;5.57;;;;;;;;;;5045372;28;20033;-78
2021/07/08 11:00:08;;;;;;;9.40;6.63;;;;;;;;;;5042111;28;20472;-78
2021/07/08 11:02:52;;;;;;;8.50;5.57;;;;;;;;;;5039241;28;20476;-79
2021/07/08 11:05:55;;;;;;;9.38;6.35;;;;;;;;;;5044971;28;20586;-79
2021/07/08 11:08:46;;;;;;;6.97;5.82;;;;;;;;;;5038453;28;20029;-78
2021/07/08 11:11:32;;;;;;;7.75;6.05;;;;;;;;;;5040828;28;20025;-79
2021/07/08 11:14:20;;;;;;;8.32;6.30;;;;;;;;;;5041753;28;20444;-79
2021/07/08 11:17:13;;;;;;;8.07;5.60;;;;;;;;;;5044961;28;20037;-77
2021/07/08 11:19:44;;;;;;;10.23;6.13;;;;;;;;;;5044270;28;20045;-78
2021/07/08 11:22:33;;;;;;;9.20;5.72;;;;;;;;;;5044246;28;20104;-78
2021/07/08 11:24:59;;;;;;;7.72;5.80;;;;;;;;;;5059997;28;20017;-78
2021/07/08 11:27:31;;;;;;;7.22;5.70;;;;;;;;;;5038535;28;20377;-79
2021/07/08 11:30:04;;;;;;;8.23;5.82;;;;;;;;;;5040422;28;20148;-78
2021/07/08 11:32:42;;;;;;;15.27;7.53;;;;;;;;;;5041363;28;20090;-78
2021/07/08 11:35:31;;;;;;;13.85;7.60;;;;;;;;;;5042001;28;20023;-78
2021/07/08 11:38:00;;;;;;;;;;;;;;;;;;5054959;28;20108;-78
2021/07/08 11:40:33;;;;;;;14.00;6.68;;;;;;;;;;5036106;28;19920;-78
2021/07/08 11:43:11;;;;;;;12.77;6.78;;;;;;;;;;5042869;28;20029;-78
2021/07/08 11:45:36;;;;;;;13.13;6.68;;;;;;;;;;5039984;28;20025;-78
2021/07/08 11:48:01;;;;;;;8.30;5.93;;;;;;;;;;5040043;28;20033;-77
2021/07/08 11:50:34;;;;;;;7.65;5.80;;;;;;;;;;5041844;28;20037;-80
2021/07/08 11:53:14;;;;;;;7.78;6.15;;;;;;;;;;5044002;28;20403;-79
2021/07/08 11:55:41;;;;;;;8.75;6.22;;;;;;;;;;5037182;28;20032;-79
2021/07/08 11:58:08;;;;;;;5.70;5.07;;;;;;;;;;5040678;28;20129;-80
2021/07/08 12:00:42;;;;;;;7.97;5.95;;;;;;;;;;5034176;28;20094;-78
2021/07/08 12:03:18;;;;;;;10.48;6.20;;;;;;;;;;5044120;28;20021;-82
2021/07/08 12:05:45;;;;;;;7.78;5.90;;;;;;;;;;5050324;28;20033;-81
2021/07/08 12:08:26;;;;;;;9.43;5.75;;;;;;;;;;5041735;28;20110;-81
2021/07/08 12:11:06;;;;;;;8.95;5.50;;;;;;;;;;5044098;28;20461;-80
2021/07/08 12:13:32;;;;;;;7.82;5.10;;;;;;;;;;5037721;28;20029;-82
2021/07/08 12:16:03;;;;;;;8.75;5.78;;;;;;;;;;5044305;28;20021;-81
2021/07/08 12:18:38;;;;;;;8.60;5.75;;;;;;;;;;5060006;28;20489;-83
2021/07/08 12:21:35;;;;;;;8.10;6.22;;;;;;;;;;5042169;28;20033;-82
2021/07/08 12:24:09;;;;;;;7.72;6.15;;;;;;;;;;5062336;28;20037;-83
2021/07/08 12:26:35;;;;;;;8.55;6.07;;;;;;;;;;5044695;28;20051;-82
2021/07/08 12:29:26;;;;;;;8.07;6.25;;;;;;;;;;5041285;28;20112;-77
2021/07/08 12:31:57;;;;;;;7.70;5.82;;;;;;;;;;5049334;28;20226;-78
2021/07/08 12:34:35;;;;;;;7.88;5.88;;;;;;;;;;5047295;28;20029;-76
2021/07/08 12:37:16;;;;;;;9.07;5.80;;;;;;;;;;5047782;28;20061;-80
2021/07/08 12:39:43;;;;;;;7.85;5.88;;;;;;;;;;5046569;28;20029;-77
2021/07/08 12:42:19;;;;;;;8.10;5.60;;;;;;;;;;5043474;28;20021;-77
2021/07/08 12:44:47;;;;;;;6.88;5.30;;;;;;;;;;5040372;28;20052;-76
2021/07/08 12:47:13;;;;;;;8.10;5.25;;;;;;;;;;5048585;28;20044;-76
2021/07/08 12:49:40;;;;;;;7.32;5.40;;;;;;;;;;5047788;28;20037;-77
2021/07/08 12:52:08;;;;;;;8.02;5.47;;;;;;;;;;5046065;28;20028;-78
2021/07/08 12:54:33;;;;;;;5.78;5.15;;;;;;;;;;5042795;28;20450;-77
2021/07/08 12:57:09;;;;;;;6.05;4.97;;;;;;;;;;5043668;28;20025;-77
2021/07/08 12:59:35;;;;;;;5.68;4.32;;;;;;;;;;5039848;28;20045;-78
2021/07/08 13:02:00;;;;;;;8.45;5.00;;;;;;;;;;5044302;28;20515;-77
2021/07/08 13:04:35;;;;;;;6.15;4.82;;;;;;;;;;5043550;28;20033;-79
2021/07/08 13:07:03;;;;;;;8.63;4.63;;;;;;;;;;5040158;28;20022;-78
2021/07/08 13:09:28;;;;;;;7.47;5.38;;;;;;;;;;5041331;28;20037;-79
2021/07/08 13:11:55;;;;;;;7.93;5.50;;;;;;;;;;5045564;28;20124;-78
2021/07/08 13:14:26;;;;;;;6.50;5.03;;;;;;;;;;5039587;28;21650;-78
2021/07/08 13:17:09;;;;;;;6.30;4.57;;;;;;;;;;5045614;28;20032;-78
2021/07/08 13:19:40;;;;;;;6.20;4.65;;;;;;;;;;5037833;28;20140;-78
2021/07/08 13:22:13;;;;;;;7.78;4.75;;;;;;;;;;5038279;28;20032;-78
2021/07/08 13:24:39;;;;;;;8.95;4.70;;;;;;;;;;5039662;28;20029;-77
2021/07/08 13:27:04;;;;;;;5.93;4.30;;;;;;;;;;5044107;28;20485;-78
2021/07/08 13:29:30;;;;;;;6.50;4.80;;;;;;;;;;5046916;28;20028;-78
2021/07/08 13:31:55;;;;;;;5.18;4.38;;;;;;;;;;5045231;28;20497;-78
2021/07/08 13:34:23;;;;;;;7.55;5.32;;;;;;;;;;5040855;28;20033;-77
2021/07/08 13:36:48;;;;;;;11.32;5.57;;;;;;;;;;5040442;28;20632;-79
2021/07/08 13:39:15;;;;;;;6.47;4.85;;;;;;;;;;5042709;28;20130;-79
2021/07/08 13:41:47;;;;;;;6.80;5.00;;;;;;;;;;5036979;28;20396;-78
2021/07/08 13:44:27;;;;;;;6.72;5.07;;;;;;;;;;5041725;28;20557;-78
2021/07/08 13:46:57;;;;;;;9.85;5.40;;;;;;;;;;5040139;28;20106;-78
2021/07/08 13:49:25;;;;;;;7.00;5.40;;;;;;;;;;5038509;28;20497;-78
2021/07/08 13:51:54;;;;;;;9.32;4.80;;;;;;;;;;5056957;28;20037;-77
2021/07/08 13:54:40;;;;;;;8.25;4.47;;;;;;;;;;5039757;28;20032;-77
2021/07/08 13:57:06;;;;;;;9.20;5.95;;;;;;;;;;5042441;28;20511;-78
2021/07/08 13:59:32;;;;;;;11.15;5.45;;;;;;;;;;5040227;28;20033;-78
2021/07/08 14:01:58;;;;;;;7.22;5.55;;;;;;;;;;5044480;28;20373;-79
2021/07/08 14:04:24;;;;;;;7.82;5.05;;;;;;;;;;5039146;28;20037;-78
2021/07/08 14:06:51;;;;;;;6.45;4.50;;;;;;;;;;5037133;28;20055;-78
2021/07/08 14:09:19;;;;;;;6.25;4.43;;;;;;;;;;5036386;28;20021;-79
2021/07/08 14:11:44;;;;;;;4.03;3.50;;;;;;;;;;5040026;28;20362;-78
2021/07/08 14:14:10;;;;;;;5.30;4.53;;;;;;;;;;5042944;28;20111;-78
2021/07/08 14:16:36;;;;;;;5.47;4.20;;;;;;;;;;5043001;28;20036;-78
2021/07/08 14:19:02;;;;;;;4.70;3.80;;;;;;;;;;5042077;28;20025;-79
2021/07/08 14:21:27;;;;;;;4.18;3.78;;;;;;;;;;5040742;28;20021;-79
2021/07/08 14:23:53;;;;;;;4.95;3.30;;;;;;;;;;5038920;28;20067;-79
2021/07/08 14:26:20;;;;;;;6.50;3.50;;;;;;;;;;5044926;28;20033;-79
2021/07/08 14:28:46;;;;;;;5.60;3.15;;;;;;;;;;5043309;28;20021;-79
2021/07/08 14:31:11;;;;;;;17.40;5.90;;;;;;;;;;5040057;28;20021;-79
2021/07/08 14:33:37;;;;;;;21.27;7.28;;;;;;;;;;5045086;28;20370;-79
2021/07/08 14:36:05;;;;;;;9.48;4.43;;;;;;;;;;5040413;28;20119;-80
2021/07/08 14:38:31;;;;;;;7.90;4.18;;;;;;;;;;5044570;28;20086;-79
2021/07/08 14:40:58;;;;;;;4.55;3.13;;;;;;;;;;5042933;28;20393;-79
2021/07/08 14:43:52;;;;;;;6.80;3.72;;;;;;;;;;5048105;28;20036;-79
2021/07/08 14:46:24;;;;;;;23.08;6.05;;;;;;;;;;5046022;28;20079;-79
2021/07/08 14:48:55;;;;;;;11.90;5.30;;;;;;;;;;5038064;28;20059;-79
2021/07/08 14:51:21;;;;;;;8.52;4.05;;;;;;;;;;5048106;28;20035;-79
2021/07/08 14:53:47;;;;;;;5.07;3.28;;;;;;;;;;5043568;28;20058;-79
2021/07/08 14:56:13;;;;;;;3.33;2.78;;;;;;;;;;5045432;28;20108;-80
2021/07/08 14:58:38;;;;;;;4.97;3.58;;;;;;;;;;5045395;28;20496;-79